Time;durP1;ratioP1;P1;durP2;ratioP2;P2;SDS_P1;SDS_P2;PMS_P1;PMS_P2;Temp;Humidity;BMP_temperature;BMP_pressure;BME280_temperature;BME280_humidity;BME280_pressure;Samples;Min_cycle;Max_cycle;Signal;HPM_P1;HPM_P2
2023/11/08 00:02:20;;;;;;;3.90;2.40;;;10.10;99.90;;;;;;5119982;27;20597;-81
2023/11/08 00:04:46;;;;;;;2.88;2.67;;;10.10;99.90;;;;;;5098741;28;20063;-81
2023/11/08 00:07:12;;;;;;;3.75;2.90;;;10.00;99.90;;;;;;5122698;27;20065;-83
2023/11/08 00:09:38;;;;;;;3.35;2.38;;;10.00;99.90;;;;;;5104561;28;20058;-82
2023/11/08 00:12:04;;;;;;;2.55;2.20;;;10.00;99.90;;;;;;5102452;28;20059;-82
2023/11/08 00:14:30;;;;;;;2.95;1.90;;;9.90;99.90;;;;;;5102458;28;20024;-82
2023/11/08 00:16:56;;;;;;;2.55;1.70;;;9.90;99.90;;;;;;5122812;28;20054;-82
2023/11/08 00:19:22;;;;;;;2.30;2.13;;;10.10;90.80;;;;;;5103775;28;20068;-82
2023/11/08 00:21:48;;;;;;;3.00;1.75;;;10.20;65.10;;;;;;5102932;28;20031;-82
2023/11/08 00:24:14;;;;;;;2.83;2.28;;;10.40;43.90;;;;;;5123731;28;20505;-82
2023/11/08 00:26:39;;;;;;;1.92;1.65;;;10.50;58.10;;;;;;5120796;28;20051;-82
2023/11/08 00:29:06;;;;;;;3.13;1.73;;;10.50;52.70;;;;;;5122706;28;20144;-81
2023/11/08 00:31:32;;;;;;;2.20;2.00;;;10.60;67.80;;;;;;5122301;28;20118;-81
2023/11/08 00:33:58;;;;;;;1.90;1.80;;;10.50;69.50;;;;;;5121162;28;20584;-82
2023/11/08 00:36:24;;;;;;;2.58;2.05;;;10.40;85.60;;;;;;5123700;28;20106;-82
2023/11/08 00:38:50;;;;;;;2.25;1.73;;;10.30;71.70;;;;;;5123406;28;20106;-82
2023/11/08 00:41:15;;;;;;;2.28;1.80;;;10.20;85.20;;;;;;5121699;28;20034;-81
2023/11/08 00:43:42;;;;;;;1.95;1.80;;;10.10;84.60;;;;;;5100477;28;20090;-82
2023/11/08 00:46:08;;;;;;;2.00;1.88;;;10.00;90.50;;;;;;5123108;28;20061;-81
2023/11/08 00:48:38;;;;;;;2.30;2.15;;;9.90;88.10;;;;;;5101922;28;20034;-81
2023/11/08 00:51:04;;;;;;;2.95;1.58;;;9.90;96.20;;;;;;5103646;28;20164;-82
2023/11/08 00:53:31;;;;;;;2.05;1.95;;;9.80;86.60;;;;;;5104259;28;20031;-81
2023/11/08 00:55:57;;;;;;;2.08;1.92;;;9.60;88.70;;;;;;5101798;28;20077;-82
2023/11/08 00:58:23;;;;;;;1.77;1.52;;;9.60;90.50;;;;;;5111006;28;20051;-82
2023/11/08 01:00:51;;;;;;;2.80;1.92;;;9.40;93.10;;;;;;5123300;28;20030;-82
2023/11/08 01:03:17;;;;;;;2.65;1.80;;;9.40;97.40;;;;;;5122312;28;20019;-82
2023/11/08 01:05:43;;;;;;;2.20;1.80;;;9.40;96.80;;;;;;5123888;27;20028;-82
2023/11/08 01:08:11;;;;;;;2.58;2.20;;;9.30;97.10;;;;;;5105591;27;20020;-82
2023/11/08 01:10:40;;;;;;;3.83;2.30;;;9.30;99.90;;;;;;5107699;27;20080;-82
2023/11/08 01:13:06;;;;;;;1.95;1.85;;;9.30;99.90;;;;;;5104622;28;20028;-81
2023/11/08 01:15:32;;;;;;;1.65;1.55;;;9.30;99.90;;;;;;5123176;27;20039;-82
2023/11/08 01:17:58;;;;;;;1.92;1.73;;;9.40;99.90;;;;;;5127052;27;20416;-82
2023/11/08 01:20:23;;;;;;;3.17;1.33;;;9.30;99.90;;;;;;5124393;27;20081;-82
2023/11/08 01:22:50;;;;;;;1.90;1.40;;;9.40;99.90;;;;;;5125339;27;20035;-82
2023/11/08 01:25:16;;;;;;;2.63;1.50;;;9.40;99.90;;;;;;5108339;27;20506;-82
2023/11/08 01:27:42;;;;;;;2.30;1.60;;;9.40;99.90;;;;;;5104588;27;20538;-82
2023/11/08 01:30:08;;;;;;;1.30;1.30;;;9.40;99.90;;;;;;5126524;27;20031;-82
2023/11/08 01:32:34;;;;;;;2.75;1.75;;;9.40;99.90;;;;;;5126732;27;20030;-81
2023/11/08 01:35:00;;;;;;;2.47;1.20;;;9.40;99.90;;;;;;5125222;27;20375;-82
2023/11/08 01:37:27;;;;;;;1.73;1.17;;;9.30;93.80;;;;;;5123472;27;20031;-82
2023/11/08 01:39:52;;;;;;;1.48;1.38;;;9.20;99.20;;;;;;5123356;27;20546;-82
2023/11/08 01:42:19;;;;;;;1.25;1.15;;;9.10;99.90;;;;;;5125858;27;20098;-81
2023/11/08 01:44:45;;;;;;;4.00;1.48;;;9.10;99.90;;;;;;5126029;27;20623;-81
2023/11/08 01:47:14;;;;;;;3.10;1.20;;;9.10;99.90;;;;;;5107229;27;20023;-81
2023/11/08 01:49:40;;;;;;;1.67;1.30;;;9.10;99.90;;;;;;5104660;27;20032;-82
2023/11/08 01:52:06;;;;;;;1.13;1.10;;;9.00;94.90;;;;;;5125602;27;20058;-82
2023/11/08 01:54:33;;;;;;;2.33;1.38;;;8.90;93.30;;;;;;5122536;27;20098;-82
2023/11/08 01:57:00;;;;;;;2.03;1.20;;;8.80;92.80;;;;;;5125140;27;20034;-82
2023/11/08 01:59:27;;;;;;;2.15;1.17;;;8.80;99.90;;;;;;5122888;27;20032;-82
2023/11/08 02:01:57;;;;;;;1.48;1.15;;;8.80;99.90;;;;;;5107354;27;20031;-82
2023/11/08 02:04:24;;;;;;;1.40;1.30;;;8.90;99.90;;;;;;5106573;27;20032;-82
2023/11/08 02:06:50;;;;;;;1.52;1.40;;;8.80;99.90;;;;;;5104648;28;20107;-82
2023/11/08 02:09:16;;;;;;;1.95;1.40;;;8.80;99.90;;;;;;5125979;27;20111;-81
2023/11/08 02:11:44;;;;;;;1.77;1.35;;;8.80;99.90;;;;;;5123566;27;20031;-82
2023/11/08 02:14:10;;;;;;;4.20;1.30;;;8.90;99.90;;;;;;5124277;27;20049;-82
2023/11/08 02:16:36;;;;;;;1.73;1.10;;;8.90;99.90;;;;;;5124101;27;20019;-82
2023/11/08 02:19:03;;;;;;;1.98;1.23;;;8.90;99.90;;;;;;5122470;27;20024;-82
2023/11/08 02:21:29;;;;;;;1.50;1.40;;;8.80;99.90;;;;;;5106825;27;20104;-82
2023/11/08 02:23:55;;;;;;;2.10;1.60;;;8.90;99.90;;;;;;5123754;27;20030;-82
2023/11/08 02:26:21;;;;;;;1.50;1.40;;;8.90;99.90;;;;;;5123327;27;20102;-82
2023/11/08 02:28:47;;;;;;;1.77;1.20;;;8.90;99.90;;;;;;5125403;27;20023;-83
2023/11/08 02:31:13;;;;;;;1.52;1.30;;;8.90;99.90;;;;;;5121747;27;20023;-82
2023/11/08 02:33:40;;;;;;;2.80;1.40;;;8.90;99.90;;;;;;5125469;27;20019;-82
2023/11/08 02:36:06;;;;;;;1.73;1.33;;;9.00;99.90;;;;;;5123829;27;20020;-82
2023/11/08 02:38:32;;;;;;;1.30;1.20;;;9.00;99.90;;;;;;5122775;27;20023;-82
2023/11/08 02:40:57;;;;;;;3.13;1.48;;;9.00;99.90;;;;;;5125372;27;20351;-82
2023/11/08 02:43:25;;;;;;;2.60;1.35;;;9.00;99.90;;;;;;5122515;27;20113;-82
2023/11/08 02:45:53;;;;;;;1.85;1.27;;;8.90;99.90;;;;;;5103633;27;20028;-83
2023/11/08 02:48:19;;;;;;;1.35;1.25;;;8.90;99.90;;;;;;5122121;27;20030;-82
2023/11/08 02:50:45;;;;;;;1.33;1.15;;;8.80;99.90;;;;;;5121893;27;20096;-81
2023/11/08 02:53:11;;;;;;;1.17;1.08;;;8.70;99.90;;;;;;5106501;27;20424;-82
2023/11/08 02:55:37;;;;;;;2.05;1.20;;;8.70;99.90;;;;;;5104461;27;20483;-83
2023/11/08 02:58:03;;;;;;;1.10;1.10;;;8.70;99.90;;;;;;5121931;27;20501;-83
2023/11/08 03:00:29;;;;;;;1.55;1.40;;;8.70;99.90;;;;;;5118278;27;20399;-83
2023/11/08 03:02:54;;;;;;;1.35;1.10;;;8.80;99.90;;;;;;5124964;27;20076;-83
2023/11/08 03:05:21;;;;;;;1.20;1.10;;;8.90;99.90;;;;;;5103457;27;20030;-81
2023/11/08 03:07:53;;;;;;;1.58;1.27;;;8.90;99.90;;;;;;5100712;28;20072;-82
2023/11/08 03:10:19;;;;;;;2.42;1.08;;;9.00;97.60;;;;;;5124678;27;20015;-83
2023/11/08 03:12:46;;;;;;;2.40;1.02;;;9.00;97.70;;;;;;5117568;27;20030;-82
2023/11/08 03:15:16;;;;;;;1.00;1.00;;;9.00;96.40;;;;;;5106376;27;20024;-83
2023/11/08 03:17:46;;;;;;;1.20;1.10;;;9.00;91.00;;;;;;5122555;27;20088;-82
2023/11/08 03:20:15;;;;;;;3.40;1.20;;;9.10;92.20;;;;;;5106038;27;20432;-83
2023/11/08 03:22:42;;;;;;;1.20;1.10;;;9.10;91.60;;;;;;5106267;27;20061;-83
2023/11/08 03:25:11;;;;;;;1.52;1.00;;;9.10;89.20;;;;;;5123199;27;20080;-82
2023/11/08 03:27:44;;;;;;;3.13;1.15;;;9.10;91.80;;;;;;5120750;27;20023;-82
2023/11/08 03:30:12;;;;;;;1.13;1.05;;;9.10;89.60;;;;;;5103801;27;20031;-82
2023/11/08 03:32:39;;;;;;;1.20;1.10;;;9.10;89.50;;;;;;5105229;27;20030;-83
2023/11/08 03:35:05;;;;;;;2.78;1.20;;;9.20;90.70;;;;;;5120838;27;20031;-82
2023/11/08 03:37:38;;;;;;;1.00;1.00;;;9.20;92.30;;;;;;5121580;27;20034;-82
2023/11/08 03:40:05;;;;;;;1.95;0.93;;;9.20;85.60;;;;;;5103782;27;20063;-82
2023/11/08 03:42:34;;;;;;;1.13;1.00;;;9.20;90.00;;;;;;5124272;27;20031;-81
2023/11/08 03:45:04;;;;;;;1.25;1.00;;;9.20;88.00;;;;;;5117101;27;20023;-82
2023/11/08 03:47:33;;;;;;;1.73;1.05;;;9.00;74.40;;;;;;5104624;27;20020;-82
2023/11/08 03:49:58;;;;;;;1.00;1.00;;;8.80;91.00;;;;;;5102527;28;20420;-83
2023/11/08 03:52:24;;;;;;;0.93;0.93;;;8.80;95.00;;;;;;5123897;27;20039;-82
2023/11/08 03:54:51;;;;;;;1.10;1.00;;;8.70;96.00;;;;;;5121557;27;20106;-82
2023/11/08 03:57:16;;;;;;;2.05;0.75;;;8.70;91.20;;;;;;5104078;28;20027;-82
2023/11/08 03:59:42;;;;;;;1.52;1.42;;;8.80;80.00;;;;;;5123069;27;20032;-82
2023/11/08 04:02:08;;;;;;;0.77;0.77;;;8.90;67.40;;;;;;5120773;27;20491;-83
2023/11/08 04:04:34;;;;;;;1.25;0.90;;;9.00;67.60;;;;;;5123609;27;20058;-82
2023/11/08 04:06:59;;;;;;;1.60;1.13;;;9.10;57.30;;;;;;5119933;27;20054;-82
2023/11/08 04:09:25;;;;;;;0.80;0.80;;;9.20;47.30;;;;;;5119944;28;20474;-81
2023/11/08 04:11:51;;;;;;;2.67;0.93;;;9.30;38.90;;;;;;5123385;28;20015;-82
2023/11/08 04:14:17;;;;;;;2.67;1.20;;;9.40;30.90;;;;;;5120319;28;20068;-81
2023/11/08 04:16:43;;;;;;;2.22;1.00;;;9.40;30.30;;;;;;5123023;28;20035;-81
2023/11/08 04:19:09;;;;;;;1.58;0.90;;;9.40;32.40;;;;;;5119905;28;20051;-81
2023/11/08 04:21:34;;;;;;;1.73;0.90;;;9.50;27.00;;;;;;5122450;28;20514;-82
2023/11/08 04:24:02;;;;;;;3.00;1.20;;;9.60;16.70;;;;;;5102434;28;20536;-81
2023/11/08 04:26:30;;;;;;;1.63;1.00;;;9.60;14.50;;;;;;5116562;28;20143;-81
2023/11/08 04:28:58;;;;;;;2.33;0.98;;;9.70;23.00;;;;;;5104282;28;20054;-81
2023/11/08 04:31:24;;;;;;;0.90;0.90;;;9.70;17.20;;;;;;5119618;28;20015;-81
2023/11/08 04:33:51;;;;;;;1.13;0.80;;;9.70;7.60;;;;;;5119987;28;20115;-82
2023/11/08 04:36:17;;;;;;;1.42;1.20;;;9.60;22.30;;;;;;5119609;28;20023;-81
2023/11/08 04:38:45;;;;;;;0.80;0.80;;;9.50;34.80;;;;;;5121841;27;20024;-81
2023/11/08 04:41:14;;;;;;;1.10;1.00;;;9.40;47.40;;;;;;5125529;27;20015;-81
2023/11/08 04:43:42;;;;;;;1.73;1.02;;;9.20;55.50;;;;;;5109154;27;20106;-81
2023/11/08 04:46:10;;;;;;;0.80;0.80;;;9.10;55.00;;;;;;5106531;27;20024;-81
2023/11/08 04:48:37;;;;;;;1.42;0.90;;;9.00;68.20;;;;;;5125838;27;20097;-81
2023/11/08 04:51:03;;;;;;;0.80;0.70;;;9.10;75.50;;;;;;5108126;27;20055;-82
2023/11/08 04:53:29;;;;;;;3.65;0.70;;;9.00;55.50;;;;;;5122520;28;20015;-82
2023/11/08 04:55:54;;;;;;;1.80;0.98;;;9.20;1.00;;;;;;5104747;28;20034;-82
2023/11/08 04:58:20;;;;;;;0.70;0.70;;;9.50;1.00;;;;;;5124952;28;20020;-83
2023/11/08 05:00:46;;;;;;;0.88;0.82;;;9.60;1.00;;;;;;5122140;28;20087;-82
2023/11/08 05:03:11;;;;;;;0.90;0.90;;;9.70;1.00;;;;;;5102867;28;20075;-82
2023/11/08 05:05:37;;;;;;;0.70;0.70;;;9.80;1.00;;;;;;5122528;28;20031;-83
2023/11/08 05:08:07;;;;;;;1.88;0.95;;;9.80;1.00;;;;;;5122645;28;20540;-81
2023/11/08 05:10:34;;;;;;;1.00;1.00;;;9.80;1.00;;;;;;5124006;28;20051;-82
2023/11/08 05:13:02;;;;;;;2.17;0.80;;;9.80;1.00;;;;;;5107001;28;20411;-82
2023/11/08 05:15:29;;;;;;;0.80;0.80;;;9.90;1.00;;;;;;5122621;28;20024;-82
2023/11/08 05:17:56;;;;;;;0.95;0.93;;;9.90;1.00;;;;;;5124807;28;20390;-82
2023/11/08 05:20:22;;;;;;;1.00;0.93;;;10.00;1.00;;;;;;5124535;28;20015;-82
2023/11/08 05:22:49;;;;;;;2.30;1.00;;;10.00;1.00;;;;;;5122730;28;20114;-82
2023/11/08 05:25:15;;;;;;;0.90;0.90;;;10.00;1.00;;;;;;5107068;28;20023;-82
2023/11/08 05:27:41;;;;;;;0.75;0.75;;;10.10;1.00;;;;;;5123079;28;20432;-82
2023/11/08 05:30:09;;;;;;;0.95;0.70;;;10.10;1.00;;;;;;5122150;28;20020;-82
2023/11/08 05:32:35;;;;;;;0.88;0.88;;;10.10;1.00;;;;;;5122819;28;20420;-82
2023/11/08 05:35:02;;;;;;;0.85;0.85;;;10.10;1.00;;;;;;5106920;28;20394;-81
2023/11/08 05:37:28;;;;;;;0.80;0.80;;;10.10;1.00;;;;;;5121625;28;20023;-82
2023/11/08 05:39:54;;;;;;;1.40;0.90;;;10.10;1.00;;;;;;5123553;28;20039;-82
2023/11/08 05:42:22;;;;;;;0.95;0.90;;;10.10;1.00;;;;;;5123041;28;20024;-82
2023/11/08 05:44:52;;;;;;;1.40;0.73;;;10.10;1.00;;;;;;5114663;28;20027;-82
2023/11/08 05:47:18;;;;;;;1.05;0.50;;;10.10;1.00;;;;;;5121354;28;20487;-83
2023/11/08 05:49:44;;;;;;;0.80;0.80;;;10.10;1.00;;;;;;5123681;28;20031;-82
2023/11/08 05:52:10;;;;;;;1.67;1.10;;;10.10;1.00;;;;;;5080129;27;1206257;-82
2023/11/08 05:54:35;;;;;;;0.80;0.80;;;10.10;1.00;;;;;;5126433;27;20032;-82
2023/11/08 05:57:02;;;;;;;1.55;0.90;;;10.10;1.00;;;;;;5126054;27;20475;-82
2023/11/08 05:59:28;;;;;;;0.80;0.80;;;10.10;1.00;;;;;;5124170;27;20024;-82
2023/11/08 06:01:53;;;;;;;2.67;0.80;;;10.10;99.90;;;;;;5124309;27;20078;-82
2023/11/08 06:04:19;;;;;;;2.28;0.68;;;10.10;99.90;;;;;;5100568;28;20024;-82
2023/11/08 06:06:45;;;;;;;1.20;0.80;;;10.20;99.90;;;;;;5127179;27;20019;-82
2023/11/08 06:09:14;;;;;;;0.73;0.73;;;10.20;99.90;;;;;;5100664;28;20501;-82
2023/11/08 06:11:41;;;;;;;2.38;0.70;;;10.20;99.90;;;;;;5122361;27;20015;-81
2023/11/08 06:14:06;;;;;;;0.73;0.73;;;10.20;99.90;;;;;;5091690;27;20027;-81
2023/11/08 06:16:32;;;;;;;0.80;0.80;;;10.20;99.90;;;;;;5109431;28;20379;-81
2023/11/08 06:18:58;;;;;;;0.68;0.68;;;10.30;99.90;;;;;;5123857;27;20035;-81
2023/11/08 06:21:23;;;;;;;1.58;0.80;;;10.20;99.90;;;;;;5127207;27;20496;-81
2023/11/08 06:23:49;;;;;;;0.50;0.50;;;10.30;99.90;;;;;;5097186;28;20095;-81
2023/11/08 06:26:17;;;;;;;0.93;0.60;;;10.30;99.90;;;;;;5107267;28;20019;-81
2023/11/08 06:28:44;;;;;;;0.60;0.60;;;10.30;99.90;;;;;;5098860;27;20397;-81
2023/11/08 06:31:10;;;;;;;0.82;0.82;;;10.30;99.90;;;;;;5092684;28;20103;-81
2023/11/08 06:33:38;;;;;;;0.55;0.55;;;10.30;99.90;;;;;;5116838;27;20095;-82
2023/11/08 06:36:04;;;;;;;0.60;0.40;;;10.30;99.90;;;;;;5109499;27;20028;-81
2023/11/08 06:38:30;;;;;;;1.73;0.68;;;10.40;99.90;;;;;;5114846;28;20085;-82
2023/11/08 06:40:56;;;;;;;1.13;0.68;;;10.40;99.90;;;;;;5118591;27;20027;-81
2023/11/08 06:43:22;;;;;;;0.90;0.63;;;10.40;99.90;;;;;;5114792;28;20079;-82
2023/11/08 06:45:49;;;;;;;0.70;0.70;;;10.40;99.90;;;;;;5114516;28;20019;-82
2023/11/08 06:48:15;;;;;;;1.08;1.08;;;10.40;99.90;;;;;;5121238;27;20030;-82
2023/11/08 06:50:43;;;;;;;6.07;2.78;;;10.40;99.90;;;;;;5122068;27;20016;-82
2023/11/08 06:53:10;;;;;;;4.18;2.90;;;10.40;99.90;;;;;;5123740;27;20440;-82
2023/11/08 06:55:35;;;;;;;2.38;1.75;;;10.30;1.00;;;;;;5125178;27;20390;-82
2023/11/08 06:58:01;;;;;;;1.30;1.30;;;10.30;1.00;;;;;;5124818;27;20030;-82
2023/11/08 07:00:27;;;;;;;1.80;1.67;;;10.20;1.00;;;;;;5103212;27;20367;-81
2023/11/08 07:02:53;;;;;;;3.38;1.83;;;10.10;1.00;;;;;;5116451;27;20066;-81
2023/11/08 07:05:19;;;;;;;2.75;2.28;;;10.00;1.00;;;;;;5122613;27;20062;-81
2023/11/08 07:07:46;;;;;;;2.97;2.53;;;9.90;6.70;;;;;;5124090;27;20019;-81
2023/11/08 07:10:12;;;;;;;2.90;2.70;;;9.90;12.40;;;;;;5121286;27;20018;-82
2023/11/08 07:12:41;;;;;;;3.42;3.13;;;9.90;19.00;;;;;;5124101;27;20087;-81
2023/11/08 07:15:07;;;;;;;5.07;3.08;;;9.90;31.20;;;;;;5121593;27;20030;-82
2023/11/08 07:17:36;;;;;;;8.35;3.75;;;9.80;38.60;;;;;;5124107;27;20076;-81
2023/11/08 07:20:04;;;;;;;5.00;3.53;;;9.80;45.70;;;;;;5121432;27;20023;-82
2023/11/08 07:22:30;;;;;;;4.75;3.33;;;9.80;50.00;;;;;;5123556;27;20115;-82
2023/11/08 07:24:56;;;;;;;3.83;3.08;;;9.80;54.30;;;;;;5123115;27;20106;-82
2023/11/08 07:27:22;;;;;;;3.45;3.10;;;9.80;49.00;;;;;;5103426;28;20035;-81
2023/11/08 07:29:47;;;;;;;3.42;3.22;;;9.90;41.60;;;;;;5120678;27;20023;-81
2023/11/08 07:32:14;;;;;;;3.25;2.92;;;9.90;47.60;;;;;;5106837;28;20475;-81
2023/11/08 07:34:43;;;;;;;2.92;2.72;;;9.90;55.70;;;;;;5106745;27;20463;-81
2023/11/08 07:37:09;;;;;;;6.53;2.97;;;9.80;53.00;;;;;;5121614;27;20028;-81
2023/11/08 07:39:38;;;;;;;7.97;2.83;;;9.80;57.40;;;;;;5124345;27;20198;-81
2023/11/08 07:42:04;;;;;;;3.20;2.90;;;9.80;57.30;;;;;;5121852;27;20538;-81
2023/11/08 07:44:30;;;;;;;2.70;2.50;;;9.80;60.30;;;;;;5124576;27;20162;-81
2023/11/08 07:46:56;;;;;;;5.65;3.33;;;9.90;56.80;;;;;;5120242;27;20148;-82
2023/11/08 07:49:23;;;;;;;3.92;3.55;;;9.90;62.20;;;;;;5105871;27;20118;-82
2023/11/08 07:51:50;;;;;;;3.58;3.22;;;9.90;60.60;;;;;;5120945;27;20048;-81
2023/11/08 07:54:16;;;;;;;4.22;3.33;;;9.90;52.80;;;;;;5104153;28;20043;-81
2023/11/08 07:56:43;;;;;;;9.23;3.75;;;9.90;54.40;;;;;;5120104;27;20023;-81
2023/11/08 07:59:09;;;;;;;5.20;3.10;;;10.00;61.30;;;;;;5123972;27;20046;-82
2023/11/08 08:01:35;;;;;;;3.58;3.28;;;10.00;58.20;;;;;;5123761;27;20059;-82
2023/11/08 08:04:00;;;;;;;4.75;3.30;;;10.00;61.20;;;;;;5121462;27;20043;-82
2023/11/08 08:06:26;;;;;;;8.38;3.40;;;10.10;60.80;;;;;;5122080;27;20066;-82
2023/11/08 08:08:52;;;;;;;3.90;3.53;;;10.20;65.60;;;;;;5120039;27;20019;-81
2023/11/08 08:11:17;;;;;;;4.93;3.25;;;10.20;67.90;;;;;;5123972;28;20029;-82
2023/11/08 08:13:45;;;;;;;4.07;3.67;;;10.20;64.50;;;;;;5122165;28;20051;-82
2023/11/08 08:16:11;;;;;;;3.63;3.08;;;10.20;67.80;;;;;;5121814;28;20024;-81
2023/11/08 08:18:37;;;;;;;4.80;3.38;;;10.30;69.30;;;;;;5125897;28;20028;-83
2023/11/08 08:21:03;;;;;;;7.80;3.25;;;10.30;71.00;;;;;;5123628;28;20045;-82
2023/11/08 08:23:29;;;;;;;4.63;3.15;;;10.30;43.90;;;;;;5102339;28;20024;-81
2023/11/08 08:25:55;;;;;;;4.38;3.15;;;10.30;52.50;;;;;;5122933;28;20034;-81
2023/11/08 08:28:21;;;;;;;3.92;3.63;;;10.40;63.00;;;;;;5101598;28;20019;-81
2023/11/08 08:30:46;;;;;;;6.13;3.78;;;10.40;78.30;;;;;;5122792;28;20463;-81
2023/11/08 08:33:12;;;;;;;5.75;4.28;;;10.40;74.10;;;;;;5120674;28;20463;-81
2023/11/08 08:35:38;;;;;;;5.72;4.60;;;10.40;57.20;;;;;;5123736;28;20031;-81
2023/11/08 08:38:04;;;;;;;4.78;3.28;;;10.50;58.90;;;;;;5122809;28;20051;-81
2023/11/08 08:40:31;;;;;;;5.00;4.03;;;10.50;66.90;;;;;;5119667;28;20629;-81
2023/11/08 08:42:56;;;;;;;3.90;3.60;;;10.50;72.10;;;;;;5103647;28;20030;-81
2023/11/08 08:45:22;;;;;;;4.07;3.40;;;10.50;87.00;;;;;;5120392;28;20487;-81
2023/11/08 08:47:52;;;;;;;3.85;3.30;;;10.50;81.20;;;;;;5124529;28;20106;-81
2023/11/08 08:50:17;;;;;;;4.82;3.30;;;10.60;75.00;;;;;;5104902;28;20076;-81
2023/11/08 08:52:45;;;;;;;4.00;3.17;;;10.60;76.50;;;;;;5122012;28;20456;-81
2023/11/08 08:55:13;;;;;;;3.05;2.85;;;10.60;66.20;;;;;;5124664;28;20505;-81
2023/11/08 08:57:43;;;;;;;3.25;2.78;;;10.60;60.50;;;;;;5103749;28;20032;-81
2023/11/08 09:00:09;;;;;;;3.42;2.58;;;10.60;20.40;;;;;;5122518;28;20172;-82
2023/11/08 09:02:35;;;;;;;3.65;2.20;;;10.70;21.90;;;;;;5122054;28;20027;-81
2023/11/08 09:05:02;;;;;;;2.83;2.15;;;10.70;1.00;;;;;;5124494;28;20026;-81
2023/11/08 09:07:28;;;;;;;3.88;2.35;;;10.70;1.00;;;;;;5103856;28;20019;-81
2023/11/08 09:09:53;;;;;;;2.97;2.03;;;10.80;1.00;;;;;;5122864;28;20498;-81
2023/11/08 09:12:19;;;;;;;2.17;2.08;;;10.80;1.00;;;;;;5102178;28;20031;-81
2023/11/08 09:14:54;;;;;;;4.35;2.20;;;10.90;1.00;;;;;;5124368;28;20115;-81
2023/11/08 09:17:20;;;;;;;2.33;1.88;;;10.90;1.00;;;;;;5122708;28;20038;-81
2023/11/08 09:19:47;;;;;;;2.45;2.03;;;11.00;1.00;;;;;;5121840;28;20050;-81
2023/11/08 09:22:12;;;;;;;2.38;1.80;;;11.00;1.00;;;;;;5105913;28;20031;-81
2023/11/08 09:24:38;;;;;;;2.15;2.05;;;11.00;1.00;;;;;;5112316;27;20527;-81
2023/11/08 09:27:06;;;;;;;3.05;1.67;;;11.00;1.00;;;;;;5124980;27;20106;-81
2023/11/08 09:29:33;;;;;;;2.20;1.52;;;11.00;1.00;;;;;;5125310;27;20538;-81
2023/11/08 09:31:59;;;;;;;1.58;1.42;;;11.20;1.00;;;;;;5126989;27;20072;-81
2023/11/08 09:34:25;;;;;;;2.80;1.50;;;11.30;1.00;;;;;;5123763;27;20055;-81
2023/11/08 09:36:51;;;;;;;2.63;1.77;;;11.40;1.00;;;;;;5126131;27;20513;-81
2023/11/08 09:39:17;;;;;;;1.70;1.40;;;11.50;1.00;;;;;;5125219;27;20275;-81
2023/11/08 09:41:43;;;;;;;3.17;1.80;;;11.50;1.00;;;;;;5124500;27;20428;-81
2023/11/08 09:44:11;;;;;;;3.70;1.88;;;11.60;1.00;;;;;;5107086;28;20401;-81
2023/11/08 09:46:41;;;;;;;1.58;1.48;;;11.60;1.00;;;;;;5123529;27;20024;-81
2023/11/08 09:49:06;;;;;;;2.97;1.95;;;11.70;1.00;;;;;;5127533;27;20444;-81
2023/11/08 09:51:32;;;;;;;3.17;1.50;;;11.70;1.00;;;;;;5123819;27;20103;-81
2023/11/08 09:54:03;;;;;;;2.60;1.80;;;11.70;1.00;;;;;;5108250;27;20023;-81
2023/11/08 09:56:31;;;;;;;5.05;2.03;;;11.80;1.00;;;;;;5124440;27;20011;-81
2023/11/08 09:58:58;;;;;;;3.20;2.80;;;11.90;99.90;;;;;;5123202;27;20363;-81
2023/11/08 10:01:27;;;;;;;2.75;2.40;;;12.00;1.00;;;;;;5104734;28;20112;-81
2023/11/08 10:03:54;;;;;;;4.68;2.67;;;12.00;1.00;;;;;;5120234;27;20020;-81
2023/11/08 10:06:20;;;;;;;5.00;3.15;;;12.00;1.00;;;;;;5126810;27;20016;-81
2023/11/08 10:08:47;;;;;;;5.85;3.25;;;12.00;1.00;;;;;;5124869;27;20148;-80
2023/11/08 10:11:14;;;;;;;4.82;2.97;;;12.00;1.00;;;;;;5123856;27;20102;-81
2023/11/08 10:13:48;;;;;;;3.65;2.78;;;12.10;1.00;;;;;;5106169;27;20023;-79
2023/11/08 10:16:16;;;;;;;3.50;2.28;;;12.10;1.00;;;;;;5123734;27;20022;-79
2023/11/08 10:18:42;;;;;;;4.97;3.08;;;12.10;1.00;;;;;;5119003;27;20024;-80
2023/11/08 10:21:19;;;;;;;5.30;2.95;;;12.10;1.00;;;;;;5124053;27;20015;-80
2023/11/08 10:23:46;;;;;;;3.08;2.88;;;12.30;1.00;;;;;;5102625;28;20490;-80
2023/11/08 10:26:16;;;;;;;2.80;2.60;;;12.30;1.00;;;;;;5123752;27;20028;-81
2023/11/08 10:29:01;;;;;;;2.75;2.53;;;12.40;1.00;;;;;;5119272;27;20018;-80
2023/11/08 10:31:32;;;;;;;2.65;2.20;;;12.40;1.00;;;;;;5117383;27;20172;-80
2023/11/08 10:33:59;;;;;;;2.60;2.40;;;12.30;1.00;;;;;;5123140;27;20015;-79
2023/11/08 10:36:26;;;;;;;8.57;2.95;;;12.40;1.00;;;;;;5104737;28;20054;-80
2023/11/08 10:38:52;;;;;;;5.22;2.97;;;12.40;1.00;;;;;;5104185;27;20030;-80
2023/11/08 10:41:19;;;;;;;3.15;2.70;;;12.50;1.00;;;;;;5119003;27;20019;-80
2023/11/08 10:43:45;;;;;;;3.67;3.00;;;12.50;1.00;;;;;;5101074;27;20488;-80
2023/11/08 10:46:11;;;;;;;3.72;3.42;;;12.50;1.00;;;;;;5115392;27;20027;-81
2023/11/08 10:48:37;;;;;;;5.03;3.70;;;12.60;1.00;;;;;;5116510;27;20023;-80
2023/11/08 10:51:05;;;;;;;8.52;3.78;;;12.70;1.00;;;;;;5119314;27;20019;-80
2023/11/08 10:53:34;;;;;;;5.07;3.58;;;12.70;1.00;;;;;;5119469;27;20055;-81
2023/11/08 10:56:03;;;;;;;4.43;3.42;;;12.70;99.90;;;;;;5103249;27;20027;-79
2023/11/08 10:58:35;;;;;;;7.63;3.95;;;12.70;1.00;;;;;;5118751;27;20591;-79
2023/11/08 11:01:03;;;;;;;4.10;3.58;;;12.70;1.00;;;;;;5103196;28;20031;-80
2023/11/08 11:03:30;;;;;;;5.07;3.47;;;12.80;1.00;;;;;;5114044;27;20490;-81
2023/11/08 11:05:59;;;;;;;5.70;4.00;;;12.90;1.00;;;;;;5118080;27;20097;-79
2023/11/08 11:08:26;;;;;;;7.00;6.32;;;12.90;1.00;;;;;;5120143;27;20019;-80
2023/11/08 11:10:52;;;;;;;7.18;4.13;;;12.90;1.00;;;;;;5121849;27;20436;-80
2023/11/08 11:13:45;;;;;;;14.07;7.55;;;12.90;99.90;;;;;;5106174;27;20015;-81
2023/11/08 11:16:15;;;;;;;12.32;7.03;;;12.90;1.00;;;;;;5114743;27;20016;-81
2023/11/08 11:18:47;;;;;;;5.10;4.25;;;12.90;1.00;;;;;;5119792;27;20024;-82
2023/11/08 11:21:23;;;;;;;12.07;8.57;;;12.90;1.00;;;;;;5121556;27;20156;-83
2023/11/08 11:23:49;;;;;;;4.93;3.92;;;12.90;1.00;;;;;;5121715;27;20039;-83
2023/11/08 11:26:47;;;;;;;8.23;4.65;;;13.00;1.00;;;;;;5120682;27;20023;-83
2023/11/08 11:29:17;;;;;;;7.10;3.90;;;13.00;1.00;;;;;;5113966;27;20026;-83
2023/11/08 11:31:43;;;;;;;5.45;3.78;;;13.00;1.00;;;;;;5099316;28;20035;-82
2023/11/08 11:34:20;;;;;;;3.88;3.55;;;13.00;1.00;;;;;;5119993;27;20029;-83
2023/11/08 11:37:06;;;;;;;5.13;3.70;;;13.00;1.00;;;;;;5115370;27;20028;-83
2023/11/08 11:39:34;;;;;;;3.70;2.95;;;13.10;99.90;;;;;;5110164;27;20011;-82
2023/11/08 11:42:12;;;;;;;4.85;3.13;;;13.10;99.90;;;;;;5119196;27;20119;-82
2023/11/08 11:44:53;;;;;;;2.92;2.53;;;13.10;1.00;;;;;;5116591;27;20033;-82
2023/11/08 11:47:28;;;;;;;5.05;3.15;;;13.10;99.90;;;;;;5116782;27;20387;-83
2023/11/08 11:50:01;;;;;;;4.78;3.00;;;13.20;99.90;;;;;;5098091;27;20110;-82
2023/11/08 11:52:28;;;;;;;3.45;2.72;;;13.20;99.90;;;;;;5116987;27;20059;-83
2023/11/08 11:54:55;;;;;;;3.70;2.40;;;13.20;99.90;;;;;;5113646;27;20031;-82
2023/11/08 11:57:24;;;;;;;4.13;3.00;;;13.20;99.90;;;;;;5118658;27;20103;-83
2023/11/08 11:59:55;;;;;;;4.25;2.80;;;13.20;99.90;;;;;;5116275;27;20032;-82
2023/11/08 12:02:21;;;;;;;3.08;2.63;;;13.20;99.90;;;;;;5095811;28;20028;-83
2023/11/08 12:04:48;;;;;;;1.98;1.88;;;13.30;99.90;;;;;;5119950;27;20383;-82
2023/11/08 12:07:15;;;;;;;7.53;2.60;;;13.40;99.90;;;;;;5102274;27;20051;-82
2023/11/08 12:09:43;;;;;;;4.55;2.55;;;13.40;99.90;;;;;;5102669;28;20460;-83
2023/11/08 12:12:10;;;;;;;2.67;2.47;;;13.40;99.90;;;;;;5095847;28;20016;-83
2023/11/08 12:14:40;;;;;;;6.85;2.05;;;13.40;99.90;;;;;;5100863;28;20126;-83
2023/11/08 12:17:08;;;;;;;2.60;2.03;;;13.50;99.90;;;;;;5120128;28;20034;-82
2023/11/08 12:19:34;;;;;;;2.75;2.30;;;13.50;99.90;;;;;;5120681;28;20039;-83
2023/11/08 12:22:01;;;;;;;4.38;2.28;;;13.50;99.90;;;;;;5120575;28;20027;-83
2023/11/08 12:24:33;;;;;;;2.90;2.30;;;13.50;99.90;;;;;;5122093;28;20538;-83
2023/11/08 12:27:02;;;;;;;;;;;13.50;99.90;;;;;;5124348;28;20031;-82
2023/11/08 12:29:29;;;;;;;3.92;2.40;;;13.40;99.90;;;;;;5097532;28;19903;-83
2023/11/08 12:31:55;;;;;;;2.35;2.20;;;13.40;99.90;;;;;;5117347;28;20127;-82
2023/11/08 12:34:23;;;;;;;2.53;2.38;;;13.40;99.90;;;;;;5119409;28;20476;-83
2023/11/08 12:36:49;;;;;;;5.03;2.92;;;13.40;99.90;;;;;;5121074;28;20467;-83
2023/11/08 12:39:20;;;;;;;2.75;2.20;;;13.50;99.90;;;;;;5117463;28;20022;-83
2023/11/08 12:41:50;;;;;;;5.10;2.58;;;13.50;99.90;;;;;;5099715;28;20031;-81
2023/11/08 12:44:20;;;;;;;7.72;2.58;;;13.40;99.90;;;;;;5122624;28;20463;-81
2023/11/08 12:46:53;;;;;;;3.75;2.40;;;13.40;99.90;;;;;;5118609;28;20020;-81
2023/11/08 12:49:26;;;;;;;4.28;2.60;;;13.40;99.90;;;;;;5121377;28;20050;-81
2023/11/08 12:51:53;;;;;;;4.82;2.35;;;13.40;99.90;;;;;;5116635;28;20104;-79
2023/11/08 12:54:19;;;;;;;2.92;2.50;;;13.40;99.90;;;;;;5123201;28;20027;-80
2023/11/08 12:56:46;;;;;;;5.63;3.08;;;13.40;99.90;;;;;;5121066;28;20052;-79